HCD weather

Estancia La Candelaria Heliport
San Martin De Los Andes, Neuquén Province, Argentina

Public forecast

Using degrees Celsius for public forecast. Weather courtesy of forecast.io.

Closest aviation weather report (METAR) to Estancia La Candelaria Heliport

Report is more than 6 hours old.

Closest report is Aviador C. Campos Airport, 10.7 nm (19.8 km) E. Retrieved 2019/10/20 19:28 UTC (19 hours ago):

SAZY 201928Z 27024G37KT 9999 FEW040 SCT100 12/01 Q1017

Closest aviation forecast (TAF) to Estancia La Candelaria Heliport

Forecast is more than 12 hours old.

Closest forecast is Aviador C. Campos Airport, 10.7 nm (19.8 km) E. Retrieved 2019/10/03 00:00 UTC (19 days ago):

TAF SAZY 022300Z 0300/0324 18005KT 9999 BKN050 TX10/0218Z TNM04/0310Z TEMPO 0300/0303 8000 RADZ BKN030 BECMG 0303/0305 VRB03KT SCT050 BECMG 0310/0312 10005KT 8000 RADZ BKN030 FEW045TCU BECMG 0320/0322 VRB03KT 9000 SHRA BKN040 FEW050TCU